Time;durP1;ratioP1;P1;durP2;ratioP2;P2;SDS_P1;SDS_P2;PMS_P1;PMS_P2;Temp;Humidity;BMP_temperature;BMP_pressure;BME280_temperature;BME280_humidity;BME280_pressure;Samples;Min_cycle;Max_cycle;Signal;HPM_P1;HPM_P2
2022/03/01 00:02:24;;;;;;;49.85;23.80;;;;;;;6.15;41.46;95775.09;4971394;28;20559;-71
2022/03/01 00:04:53;;;;;;;43.80;21.88;;;;;;;6.04;41.28;95770.53;4970441;28;20674;-69
2022/03/01 00:07:20;;;;;;;37.80;18.23;;;;;;;5.63;41.48;95780.44;4971027;28;20693;-67
2022/03/01 00:09:47;;;;;;;37.33;19.75;;;;;;;5.92;41.65;95767.00;4970773;28;20195;-67
2022/03/01 00:12:14;;;;;;;40.42;19.52;;;;;;;5.96;40.99;95768.19;4971509;28;20655;-69
2022/03/01 00:14:41;;;;;;;38.42;19.27;;;;;;;6.06;41.61;95768.53;4970858;28;20726;-69
2022/03/01 00:17:08;;;;;;;37.28;19.98;;;;;;;6.01;41.50;95758.75;4971131;28;20849;-68
2022/03/01 00:19:34;;;;;;;32.40;16.98;;;;;;;6.08;41.08;95766.53;4970871;28;20210;-68
2022/03/01 00:22:01;;;;;;;26.25;15.50;;;;;;;5.96;41.29;95761.19;4971096;28;20629;-69
2022/03/01 00:24:28;;;;;;;27.35;15.23;;;;;;;6.05;41.00;95764.34;4969788;28;20674;-69
2022/03/01 00:26:55;;;;;;;28.27;15.77;;;;;;;6.02;41.33;95756.97;4970664;28;20183;-68
2022/03/01 00:29:22;;;;;;;24.90;14.05;;;;;;;5.87;41.31;95725.19;4952804;28;20195;-67
2022/03/01 00:31:49;;;;;;;21.52;13.23;;;;;;;6.00;40.98;95754.53;4970608;28;20386;-67
2022/03/01 00:34:16;;;;;;;20.45;12.45;;;;;;;5.95;41.10;95746.56;4970121;28;20254;-69
2022/03/01 00:36:43;;;;;;;19.60;11.30;;;;;;;6.00;40.71;95735.56;4970652;28;20241;-68
2022/03/01 00:39:10;;;;;;;19.70;11.40;;;;;;;5.89;41.35;95746.59;4970040;28;20211;-68
2022/03/01 00:41:39;;;;;;;20.38;12.02;;;;;;;5.69;41.81;95745.84;4970933;28;20239;-69
2022/03/01 00:44:06;;;;;;;21.05;12.82;;;;;;;5.62;41.70;95739.84;4970185;28;20195;-69
2022/03/01 00:46:33;;;;;;;17.08;10.75;;;;;;;5.58;41.30;95733.47;4970386;28;20261;-69
2022/03/01 00:49:00;;;;;;;15.05;8.75;;;;;;;5.45;41.35;95743.88;4970173;28;20214;-68
2022/03/01 00:51:28;;;;;;;16.08;9.57;;;;;;;5.64;41.41;95738.63;4969979;28;20221;-68
2022/03/01 00:53:55;;;;;;;15.48;9.68;;;;;;;5.62;41.34;95729.47;4970118;28;20956;-67
2022/03/01 00:56:22;;;;;;;14.95;9.85;;;;;;;5.44;41.88;95729.31;4970176;28;20266;-68
2022/03/01 00:58:49;;;;;;;16.00;10.57;;;;;;;5.51;41.74;95728.25;4970267;28;20188;-71
2022/03/01 01:01:16;;;;;;;18.25;11.02;;;;;;;5.39;41.86;95724.69;4970427;28;20240;-69
2022/03/01 01:03:44;;;;;;;13.32;8.85;;;;;;;5.55;41.43;95710.44;4970108;28;20199;-70
2022/03/01 01:06:11;;;;;;;10.55;6.80;;;;;;;5.47;40.96;95700.28;4970371;28;20207;-68
2022/03/01 01:08:38;;;;;;;9.73;6.68;;;;;;;5.55;40.92;95731.25;4969874;28;20199;-68
2022/03/01 01:11:05;;;;;;;9.32;6.13;;;;;;;5.64;40.71;95717.06;4970195;28;20248;-68
2022/03/01 01:13:32;;;;;;;8.95;6.50;;;;;;;5.64;40.70;95732.66;4970094;28;20211;-68
2022/03/01 01:15:59;;;;;;;7.55;5.93;;;;;;;5.51;40.87;95737.88;4969921;28;20676;-70
2022/03/01 01:18:26;;;;;;;8.32;5.72;;;;;;;5.34;41.18;95734.91;4970267;28;20202;-69
2022/03/01 01:20:53;;;;;;;8.00;5.95;;;;;;;5.21;41.07;95728.91;4969607;28;20207;-67
2022/03/01 01:23:20;;;;;;;9.05;5.75;;;;;;;5.14;41.04;95727.16;4970069;28;20254;-70
2022/03/01 01:25:47;;;;;;;9.23;5.57;;;;;;;4.73;41.90;95729.13;4969988;28;20250;-68
2022/03/01 01:28:14;;;;;;;7.60;5.60;;;;;;;4.98;41.48;95727.53;4970010;28;20519;-70
2022/03/01 01:30:41;;;;;;;8.25;5.75;;;;;;;5.19;41.10;95731.72;4969838;28;20203;-69
2022/03/01 01:33:08;;;;;;;8.18;5.68;;;;;;;5.14;41.13;95710.75;4969811;28;20219;-69
2022/03/01 01:35:36;;;;;;;8.30;5.72;;;;;;;5.07;41.47;95710.75;4969473;28;20192;-68
2022/03/01 01:38:04;;;;;;;9.10;5.95;;;;;;;5.03;41.07;95714.75;4972726;28;20211;-69
2022/03/01 01:40:33;;;;;;;9.18;6.07;;;;;;;4.48;42.72;95720.31;4974178;28;20753;-68
2022/03/01 01:43:01;;;;;;;11.15;5.68;;;;;;;3.47;44.80;95720.34;4974680;28;20687;-70
2022/03/01 01:45:28;;;;;;;10.20;6.43;;;;;;;3.15;44.88;95720.16;4972618;28;20206;-69
2022/03/01 01:47:58;;;;;;;10.75;6.07;;;;;;;3.63;44.83;95714.06;4973146;28;20215;-68
2022/03/01 01:50:31;;;;;;;12.32;6.63;;;;;;;3.94;44.24;95717.78;4973443;28;20789;-68
2022/03/01 01:52:58;;;;;;;9.80;6.38;;;;;;;3.66;45.10;95708.50;4973559;28;20222;-67
2022/03/01 01:55:26;;;;;;;10.35;6.20;;;;;;;3.24;45.69;95716.44;4972642;28;20701;-67
2022/03/01 01:57:58;;;;;;;8.93;5.82;;;;;;;3.25;45.94;95715.47;4973322;28;20210;-68
2022/03/01 02:00:25;;;;;;;9.38;6.35;;;;;;;3.27;46.05;95690.94;4972989;28;20198;-71
2022/03/01 02:02:52;;;;;;;10.13;6.32;;;;;;;3.37;45.44;95708.75;4973174;28;20198;-66
2022/03/01 02:05:19;;;;;;;10.07;6.43;;;;;;;3.13;45.63;95706.59;4973844;28;20670;-68
2022/03/01 02:07:49;;;;;;;10.68;6.35;;;;;;;3.34;45.62;95707.31;4972815;28;20619;-69
2022/03/01 02:10:16;;;;;;;9.95;6.57;;;;;;;3.71;45.12;95706.13;4972732;28;20200;-68
2022/03/01 02:12:44;;;;;;;8.60;5.80;;;;;;;3.49;45.27;95697.66;4972949;28;20706;-70
2022/03/01 02:15:12;;;;;;;10.40;6.88;;;;;;;3.62;45.00;95678.78;4972439;28;20282;-68
2022/03/01 02:17:40;;;;;;;10.68;6.53;;;;;;;3.71;44.59;95700.94;4973236;28;20254;-68
2022/03/01 02:20:19;;;;;;;10.38;6.82;;;;;;;4.09;43.56;95694.28;4973132;28;20188;-66
2022/03/01 02:22:51;;;;;;;10.10;6.80;;;;;;;4.12;43.79;95680.94;4973204;28;20210;-68
2022/03/01 02:25:18;;;;;;;9.30;6.40;;;;;;;4.21;43.92;95687.53;4972878;28;20195;-67
2022/03/01 02:27:44;;;;;;;9.68;6.40;;;;;;;4.34;44.17;95676.38;4974294;28;20203;-68
2022/03/01 02:30:11;;;;;;;11.15;6.72;;;;;;;4.24;43.98;95666.38;4972196;28;20290;-68
2022/03/01 02:32:39;;;;;;;9.25;6.85;;;;;;;4.12;44.33;95662.78;4972572;28;20191;-66
2022/03/01 02:35:08;;;;;;;10.23;6.25;;;;;;;4.21;44.08;95664.19;4972525;28;20298;-68
2022/03/01 02:37:35;;;;;;;9.50;6.65;;;;;;;3.85;44.24;95650.75;4972344;28;20590;-68
2022/03/01 02:40:07;;;;;;;9.07;6.55;;;;;;;4.11;44.39;95661.16;4972011;28;20210;-68
2022/03/01 02:42:36;;;;;;;9.60;6.57;;;;;;;3.94;44.17;95659.97;4973572;28;20238;-69
2022/03/01 02:45:05;;;;;;;9.20;6.00;;;;;;;3.61;45.00;95672.00;4972039;28;20199;-68
2022/03/01 02:47:32;;;;;;;11.73;6.80;;;;;;;3.68;44.11;95649.50;4972429;28;20195;-69
2022/03/01 02:49:58;;;;;;;10.02;6.35;;;;;;;3.37;44.49;95669.91;4972916;28;20199;-67
2022/03/01 02:52:25;;;;;;;9.45;6.15;;;;;;;3.14;45.65;95666.78;4972836;28;20184;-69
2022/03/01 02:54:52;;;;;;;8.38;6.07;;;;;;;3.36;44.90;95671.69;4971959;28;20590;-71
2022/03/01 02:57:19;;;;;;;12.02;6.88;;;;;;;3.13;46.12;95686.69;4972542;28;20191;-69
2022/03/01 02:59:46;;;;;;;12.35;7.03;;;;;;;3.20;45.67;95674.59;4971531;28;20671;-69
2022/03/01 03:02:15;;;;;;;9.88;5.75;;;;;;;3.50;45.04;95682.91;4971658;28;20796;-70
2022/03/01 03:04:43;;;;;;;10.52;6.40;;;;;;;3.58;44.76;95674.97;4971757;28;20651;-71
2022/03/01 03:07:10;;;;;;;11.20;7.03;;;;;;;3.89;44.23;95664.91;4971958;28;20687;-69
2022/03/01 03:09:38;;;;;;;11.48;6.57;;;;;;;4.31;43.30;95672.38;4971933;28;20227;-69
2022/03/01 03:12:06;;;;;;;11.70;7.10;;;;;;;4.11;43.55;95680.13;4972199;28;20966;-69
2022/03/01 03:14:33;;;;;;;10.70;6.75;;;;;;;4.37;43.40;95681.97;4970988;28;20235;-68
2022/03/01 03:17:00;;;;;;;9.63;6.70;;;;;;;4.32;43.63;95674.00;4971721;28;20211;-69
2022/03/01 03:19:27;;;;;;;9.43;6.38;;;;;;;4.27;43.61;95686.75;4971284;28;20669;-68
2022/03/01 03:21:54;;;;;;;11.68;6.93;;;;;;;4.06;44.08;95686.91;4971470;28;20250;-67
2022/03/01 03:24:21;;;;;;;10.32;7.10;;;;;;;4.16;43.98;95676.94;4971703;28;20196;-70
2022/03/01 03:26:48;;;;;;;8.90;6.28;;;;;;;4.15;43.81;95688.31;4972090;28;20261;-68
2022/03/01 03:29:15;;;;;;;10.88;6.97;;;;;;;4.32;43.77;95694.75;4971231;28;20202;-69
2022/03/01 03:31:42;;;;;;;10.98;7.15;;;;;;;4.53;43.16;95691.97;4971441;28;20211;-70
2022/03/01 03:34:11;;;;;;;13.20;8.68;;;;;;;4.23;43.50;95689.94;4971510;28;20227;-70
2022/03/01 03:36:40;;;;;;;14.93;9.10;;;;;;;4.07;43.56;95691.09;4971457;28;20187;-67
2022/03/01 03:39:09;;;;;;;19.70;10.40;;;;;;;4.17;43.68;95690.72;4971057;28;20187;-69
2022/03/01 03:41:37;;;;;;;15.95;10.07;;;;;;;4.28;43.08;95687.53;4971354;28;20287;-67
2022/03/01 03:44:04;;;;;;;15.43;10.77;;;;;;;4.18;43.30;95674.94;4970731;28;20199;-66
2022/03/01 03:46:31;;;;;;;20.40;12.70;;;;;;;4.54;42.99;95691.00;4971749;28;20228;-68
2022/03/01 03:48:58;;;;;;;10.75;7.10;;;;;;;4.26;41.89;95673.97;4970684;28;20199;-69
2022/03/01 03:51:26;;;;;;;8.48;6.47;;;;;;;4.21;42.29;95687.53;4971519;28;20242;-70
2022/03/01 03:53:54;;;;;;;10.27;6.60;;;;;;;4.02;42.96;95683.91;4970558;28;20281;-68
2022/03/01 03:56:22;;;;;;;7.22;5.82;;;;;;;4.18;43.05;95690.50;4970879;28;20179;-69
2022/03/01 03:58:50;;;;;;;10.52;6.85;;;;;;;4.18;42.75;95687.91;4970694;28;20280;-69
2022/03/01 04:01:17;;;;;;;11.27;6.50;;;;;;;4.12;42.86;95678.34;4970744;28;20211;-68
2022/03/01 04:03:45;;;;;;;9.15;5.82;;;;;;;3.87;43.24;95674.66;4970948;28;20234;-67
2022/03/01 04:06:12;;;;;;;8.23;6.03;;;;;;;3.99;42.74;95683.50;4971425;28;20576;-66
2022/03/01 04:08:39;;;;;;;9.35;5.57;;;;;;;3.94;42.78;95678.09;4970947;28;20207;-70
2022/03/01 04:11:06;;;;;;;9.02;6.03;;;;;;;4.14;42.74;95689.31;4970799;28;20214;-69
2022/03/01 04:13:33;;;;;;;12.00;7.47;;;;;;;4.08;42.44;95679.72;4970644;28;20215;-70
2022/03/01 04:16:01;;;;;;;12.88;6.88;;;;;;;3.62;43.75;95656.25;4970806;28;20884;-69
2022/03/01 04:18:29;;;;;;;10.60;6.68;;;;;;;3.90;43.22;95680.28;4970966;28;20199;-68
2022/03/01 04:20:55;;;;;;;13.07;6.97;;;;;;;3.85;43.37;95676.69;4970580;28;20290;-68
2022/03/01 04:23:22;;;;;;;18.83;8.95;;;;;;;3.90;43.36;95687.25;4971039;28;20591;-67
2022/03/01 04:25:49;;;;;;;15.15;7.90;;;;;;;3.86;43.44;95684.25;4970354;28;20679;-65
2022/03/01 04:28:16;;;;;;;19.05;9.35;;;;;;;3.80;43.20;95671.25;4970262;28;20263;-69
2022/03/01 04:30:43;;;;;;;17.58;9.18;;;;;;;3.87;42.91;95674.66;4970334;28;20733;-69
2022/03/01 04:33:10;;;;;;;19.73;9.32;;;;;;;3.98;42.93;95687.06;4971102;28;20667;-68
2022/03/01 04:35:36;;;;;;;19.58;9.20;;;;;;;3.91;43.19;95687.06;4970518;28;20202;-67
2022/03/01 04:38:07;;;;;;;25.23;12.65;;;;;;;3.72;43.91;95692.97;4970674;28;20675;-70
2022/03/01 04:40:34;;;;;;;26.85;14.38;;;;;;;3.60;43.71;95709.25;4970065;28;20214;-70
2022/03/01 04:43:01;;;;;;;26.23;14.57;;;;;;;3.36;44.46;95696.81;4970990;28;20195;-67
2022/03/01 04:45:28;;;;;;;24.65;13.82;;;;;;;3.17;44.39;95693.09;4969887;28;20187;-68
2022/03/01 04:47:55;;;;;;;24.63;13.85;;;;;;;3.26;44.31;95711.88;4970349;28;20195;-68
2022/03/01 04:50:22;;;;;;;22.80;13.05;;;;;;;3.37;44.42;95703.56;4970043;28;20250;-69
2022/03/01 04:52:49;;;;;;;21.13;12.07;;;;;;;3.12;44.59;95705.00;4970496;28;20202;-68
2022/03/01 04:55:16;;;;;;;18.52;11.48;;;;;;;3.08;44.78;95720.91;4970283;28;20297;-69
2022/03/01 04:57:44;;;;;;;20.38;12.90;;;;;;;2.26;46.29;95713.88;4970082;28;20207;-67
2022/03/01 05:00:12;;;;;;;22.75;13.10;;;;;;;3.16;45.18;95708.84;4968490;28;20239;-70
2022/03/01 05:02:41;;;;;;;24.25;13.65;;;;;;;3.25;45.23;95707.69;4951083;29;20216;-68
2022/03/01 05:05:12;;;;;;;27.50;16.05;;;;;;;3.27;44.71;95714.25;4950549;29;20192;-67
2022/03/01 05:07:40;;;;;;;25.38;15.52;;;;;;;3.36;47.34;95717.53;4951089;29;20631;-69
2022/03/01 05:10:09;;;;;;;23.23;14.02;;;;;;;3.50;45.33;95703.63;4950818;29;20667;-67
2022/03/01 05:12:43;;;;;;;22.67;14.32;;;;;;;3.60;44.49;95714.44;4952329;28;20722;-70
2022/03/01 05:15:10;;;;;;;20.23;13.10;;;;;;;2.88;45.61;95712.19;4956238;29;20711;-69
2022/03/01 05:17:39;;;;;;;22.65;12.50;;;;;;;2.96;45.57;95712.06;4957758;29;20303;-70
2022/03/01 05:20:07;;;;;;;20.20;12.07;;;;;;;2.81;46.38;95713.94;4955698;28;20230;-70
2022/03/01 05:22:36;;;;;;;22.35;12.20;;;;;;;3.09;46.29;95717.34;4956464;29;20204;-67
2022/03/01 05:25:05;;;;;;;18.02;10.70;;;;;;;2.81;46.40;95721.72;4955235;29;20223;-68
2022/03/01 05:27:32;;;;;;;15.00;9.07;;;;;;;3.21;44.93;95696.91;4954543;29;20227;-68
2022/03/01 05:29:59;;;;;;;16.70;9.18;;;;;;;3.54;44.25;95716.00;4954758;29;20199;-68
2022/03/01 05:32:27;;;;;;;15.18;9.35;;;;;;;3.35;44.56;95708.13;4955067;29;21036;-68
2022/03/01 05:34:54;;;;;;;13.60;8.85;;;;;;;3.38;44.59;95705.16;4955087;29;20235;-66
2022/03/01 05:37:21;;;;;;;17.55;9.68;;;;;;;3.56;44.85;95706.25;4937569;29;21012;-70
2022/03/01 05:39:48;;;;;;;86.88;47.60;;;;;;;3.64;43.92;95716.47;4954555;29;20219;-71
2022/03/01 05:42:14;;;;;;;10.32;7.15;;;;;;;3.47;43.05;95719.56;4955546;29;20279;-69
2022/03/01 05:44:42;;;;;;;8.95;5.22;;;;;;;3.25;43.21;95715.47;4954329;29;20204;-68
2022/03/01 05:47:09;;;;;;;7.90;4.90;;;;;;;2.72;43.08;95709.88;4954205;29;20208;-68
2022/03/01 05:49:37;;;;;;;7.45;4.40;;;;;;;2.76;43.34;95723.25;4954235;29;20188;-66
2022/03/01 05:52:04;;;;;;;6.47;4.47;;;;;;;2.83;43.40;95724.91;4954442;29;20203;-69
2022/03/01 05:54:31;;;;;;;7.40;4.60;;;;;;;3.11;42.52;95719.75;4953822;29;20227;-68
2022/03/01 05:57:00;;;;;;;6.22;4.18;;;;;;;3.05;41.98;95726.47;4954516;29;20299;-68
2022/03/01 05:59:27;;;;;;;11.68;5.63;;;;;;;2.80;42.96;95733.06;4953634;29;20200;-69
2022/03/01 06:01:53;;;;;;;6.70;4.93;;;;;;;3.10;42.59;95726.69;4955053;29;20615;-69
2022/03/01 06:04:21;;;;;;;8.20;4.72;;;;;;;2.90;43.18;95743.09;4954082;29;20199;-69
2022/03/01 06:06:48;;;;;;;12.10;4.93;;;;;;;2.96;43.74;95737.97;4954489;29;20585;-68
2022/03/01 06:09:14;;;;;;;7.97;5.25;;;;;;;3.28;42.81;95740.97;4953418;29;20200;-68
2022/03/01 06:11:42;;;;;;;8.20;5.18;;;;;;;3.05;43.71;95746.38;4953656;29;21127;-67
2022/03/01 06:14:09;;;;;;;13.30;5.50;;;;;;;2.80;44.56;95748.59;4953093;29;20235;-69
2022/03/01 06:16:35;;;;;;;22.48;13.73;;;;;;;2.80;44.99;95747.78;4954284;29;20635;-65
2022/03/01 06:19:03;;;;;;;14.02;7.50;;;;;;;2.87;44.85;95741.69;4955275;29;20200;-67
2022/03/01 06:21:31;;;;;;;17.63;11.63;;;;;;;3.54;44.06;95748.91;4953816;29;20195;-67
2022/03/01 06:24:00;;;;;;;14.05;8.38;;;;;;;3.57;44.02;95735.56;4952752;28;20218;-67
2022/03/01 06:26:27;;;;;;;12.80;7.43;;;;;;;3.52;44.05;95748.31;4953488;28;20191;-67
2022/03/01 06:28:54;;;;;;;63.70;38.65;;;;;;;3.74;44.38;95737.63;4953807;29;20196;-69
2022/03/01 06:31:21;;;;;;;210.10;126.22;;;;;;;4.16;44.20;95731.41;4954263;29;20204;-71
2022/03/01 06:36:33;;;;;;;14.02;7.80;;;;;;;3.75;43.81;95741.84;4953202;28;20203;-68
2022/03/01 06:39:00;;;;;;;11.55;7.47;;;;;;;3.86;43.31;95740.50;4952472;29;20247;-69
2022/03/01 06:41:28;;;;;;;16.30;8.00;;;;;;;4.43;43.08;95733.09;4953116;29;20300;-68
2022/03/01 06:43:55;;;;;;;15.43;7.55;;;;;;;5.05;42.30;95732.75;4952781;29;20644;-70
2022/03/01 06:46:22;;;;;;;14.73;7.28;;;;;;;5.45;42.20;95733.47;4953361;29;20204;-69
2022/03/01 06:48:49;;;;;;;12.88;9.18;;;;;;;5.39;42.00;95735.09;4952837;29;20199;-70
2022/03/01 06:51:16;;;;;;;21.15;11.77;;;;;;;5.65;42.05;95729.03;4953160;29;20254;-69
2022/03/01 06:53:42;;;;;;;29.30;12.50;;;;;;;5.68;42.09;95723.41;4952533;29;20211;-69
2022/03/01 06:56:10;;;;;;;40.47;19.52;;;;;;;5.99;41.60;95731.34;4952797;29;21023;-70
2022/03/01 06:58:38;;;;;;;25.15;14.38;;;;;;;5.93;41.57;95732.19;4952505;29;20195;-68
2022/03/01 07:01:06;;;;;;;19.77;11.93;;;;;;;5.80;41.73;95721.81;4952797;29;20185;-68
2022/03/01 07:03:34;;;;;;;14.30;9.18;;;;;;;6.12;41.72;95733.91;4952258;29;20675;-67
2022/03/01 07:06:01;;;;;;;15.90;9.48;;;;;;;6.18;40.92;95729.66;4936140;29;20295;-70
2022/03/01 07:08:29;;;;;;;16.67;10.52;;;;;;;6.05;41.91;95735.72;4952854;28;20200;-69
2022/03/01 07:10:58;;;;;;;17.27;10.80;;;;;;;6.10;41.48;95738.50;4953953;29;20243;-68
2022/03/01 07:13:25;;;;;;;20.30;11.55;;;;;;;5.67;41.48;95706.22;4953437;28;20211;-67
2022/03/01 07:15:52;;;;;;;20.60;12.30;;;;;;;6.13;42.12;95733.69;4951538;28;20239;-72
2022/03/01 07:18:19;;;;;;;22.50;12.30;;;;;;;5.97;41.67;95734.16;4953115;28;20208;-72
2022/03/01 07:20:46;;;;;;;20.88;10.93;;;;;;;5.80;42.20;95743.38;4952246;28;20192;-70
2022/03/01 07:23:13;;;;;;;21.58;12.38;;;;;;;5.91;42.26;95744.59;4953426;28;20222;-72
2022/03/01 07:25:41;;;;;;;24.90;14.40;;;;;;;6.12;43.04;95741.69;4952438;28;20928;-74
2022/03/01 07:28:07;;;;;;;22.45;13.80;;;;;;;7.01;42.97;95739.75;4952545;29;20202;-72
2022/03/01 07:30:37;;;;;;;18.67;12.10;;;;;;;6.96;41.18;95740.41;4952129;28;20313;-74
2022/03/01 07:33:04;;;;;;;18.00;10.57;;;;;;;6.67;41.95;95740.19;4957372;28;20204;-69
2022/03/01 07:35:31;;;;;;;14.90;8.70;;;;;;;6.69;40.31;95733.78;4960793;28;20695;-70
2022/03/01 07:37:58;;;;;;;16.67;8.65;;;;;;;6.43;41.37;95733.94;4960679;28;20212;-76
2022/03/01 07:40:26;;;;;;;13.35;8.43;;;;;;;6.36;40.95;95725.38;4958901;28;20227;-75
2022/03/01 07:42:54;;;;;;;12.02;7.85;;;;;;;6.61;40.91;95728.81;4958939;28;20207;-72
2022/03/01 07:45:21;;;;;;;25.02;15.30;;;;;;;7.07;40.32;95713.66;4958474;28;20203;-68
2022/03/01 07:47:50;;;;;;;19.65;11.70;;;;;;;6.50;39.96;95724.28;4957158;28;20664;-70
2022/03/01 07:50:17;;;;;;;12.02;7.20;;;;;;;6.91;39.10;95701.16;4956787;28;20554;-72
2022/03/01 07:52:44;;;;;;;13.30;9.18;;;;;;;7.17;38.99;95706.13;4953957;28;20270;-70
2022/03/01 07:55:11;;;;;;;15.82;9.60;;;;;;;7.50;38.15;95715.47;4952746;28;20330;-73
2022/03/01 07:57:38;;;;;;;20.92;10.00;;;;;;;7.18;38.73;95718.16;4952341;28;20212;-71
2022/03/01 08:00:09;;;;;;;15.15;8.77;;;;;;;7.22;38.93;95720.34;4951624;28;20192;-68
2022/03/01 08:02:40;;;;;;;19.38;9.95;;;;;;;7.51;38.95;95709.22;4951988;28;20200;-71
2022/03/01 08:05:09;;;;;;;16.08;10.32;;;;;;;7.67;39.22;95721.69;4952148;28;20203;-76
2022/03/01 08:07:46;;;;;;;13.10;8.25;;;;;;;7.77;39.09;95717.56;4961846;28;20202;-69
2022/03/01 08:10:13;;;;;;;15.50;8.20;;;;;;;8.06;37.38;95722.03;4954689;28;20586;-70
2022/03/01 08:12:40;;;;;;;12.30;7.55;;;;;;;8.24;37.29;95692.53;4952163;28;20189;-72
2022/03/01 08:15:09;;;;;;;13.50;8.32;;;;;;;8.08;38.35;95720.00;4951343;28;20258;-71
2022/03/01 08:17:45;;;;;;;34.33;21.60;;;;;;;8.62;38.76;95713.91;4951674;29;20578;-71
2022/03/01 08:20:12;;;;;;;16.42;10.70;;;;;;;9.23;36.83;95718.00;4952266;29;20258;-73
2022/03/01 08:22:40;;;;;;;13.48;6.97;;;;;;;9.17;37.17;95723.13;4952240;29;20266;-74
2022/03/01 08:25:07;;;;;;;10.60;6.53;;;;;;;9.27;36.25;95719.16;4952158;29;20188;-75
2022/03/01 08:27:34;;;;;;;9.93;6.57;;;;;;;9.14;37.31;95715.72;4952038;29;20203;-73
2022/03/01 08:30:01;;;;;;;11.13;6.47;;;;;;;9.40;36.22;95714.47;4950988;28;20200;-74
2022/03/01 08:32:29;;;;;;;11.75;6.70;;;;;;;9.39;36.05;95717.31;4951446;29;20191;-71
2022/03/01 08:34:57;;;;;;;10.60;6.20;;;;;;;9.55;35.17;95717.44;4951498;29;20326;-71
2022/03/01 08:37:24;;;;;;;9.05;5.75;;;;;;;9.92;35.27;95720.56;4951480;29;20698;-68
2022/03/01 08:39:51;;;;;;;10.18;5.80;;;;;;;10.18;35.40;95722.72;4950749;29;20687;-74
2022/03/01 08:42:18;;;;;;;8.95;5.55;;;;;;;10.39;34.86;95719.44;4951559;29;20707;-74
2022/03/01 08:44:45;;;;;;;10.38;4.93;;;;;;;10.62;34.05;95714.09;4951080;29;20196;-70
2022/03/01 08:47:12;;;;;;;9.05;5.22;;;;;;;10.32;35.18;95721.41;4951613;29;20203;-70
2022/03/01 08:49:38;;;;;;;9.43;6.22;;;;;;;10.83;34.49;95713.41;4950528;29;20664;-73
2022/03/01 08:52:08;;;;;;;104.80;71.93;;;;;;;10.38;35.37;95728.34;4951726;29;20188;-71
2022/03/01 08:54:35;;;;;;;8.85;6.35;;;;;;;10.28;34.00;95722.91;4951129;29;20674;-70
2022/03/01 08:57:02;;;;;;;6.68;5.32;;;;;;;10.37;34.46;95725.94;4951581;29;20195;-67
2022/03/01 08:59:28;;;;;;;8.23;5.78;;;;;;;10.47;33.92;95716.44;4950632;28;20199;-71
2022/03/01 09:01:55;;;;;;;9.48;6.63;;;;;;;10.08;33.95;95723.28;4951586;29;20246;-71
2022/03/01 09:04:24;;;;;;;8.57;5.90;;;;;;;10.31;34.74;95722.41;4949924;28;20592;-73
2022/03/01 09:06:51;;;;;;;10.77;6.32;;;;;;;9.56;34.46;95728.69;4950385;28;20204;-67
2022/03/01 09:09:21;;;;;;;8.25;6.30;;;;;;;10.19;34.50;95713.81;4950793;29;20204;-73
2022/03/01 09:11:48;;;;;;;8.85;6.40;;;;;;;10.65;34.82;95718.88;4949933;29;20671;-73
2022/03/01 09:14:15;;;;;;;8.52;6.38;;;;;;;10.80;34.39;95716.50;4952784;29;20235;-71
2022/03/01 09:16:43;;;;;;;12.10;6.53;;;;;;;10.12;34.45;95723.63;4957406;29;20272;-71
2022/03/01 09:19:10;;;;;;;11.57;7.35;;;;;;;10.48;34.65;95720.66;4954840;29;20280;-72
2022/03/01 09:21:38;;;;;;;9.57;6.68;;;;;;;11.15;33.79;95719.72;4951133;29;20287;-72
2022/03/01 09:24:05;;;;;;;9.35;6.88;;;;;;;11.21;34.56;95724.00;4950759;29;20267;-70
2022/03/01 09:26:32;;;;;;;9.82;6.82;;;;;;;11.36;33.59;95709.53;4951458;29;20192;-73
2022/03/01 09:28:59;;;;;;;9.57;7.07;;;;;;;10.89;34.16;95720.31;4950401;29;20200;-70
2022/03/01 09:31:26;;;;;;;10.40;6.50;;;;;;;11.08;34.76;95724.31;4951048;29;20263;-73
2022/03/01 09:33:53;;;;;;;9.65;6.28;;;;;;;11.77;33.94;95703.88;4950337;29;20207;-74
2022/03/01 09:36:20;;;;;;;9.13;7.03;;;;;;;11.08;34.19;95713.84;4950790;29;20242;-70
2022/03/01 09:38:47;;;;;;;8.30;6.38;;;;;;;10.48;34.84;95710.16;4950754;29;20255;-72
2022/03/01 09:41:14;;;;;;;9.67;6.83;;;;;;;10.01;35.01;95729.66;4950859;29;20208;-71
2022/03/01 09:43:42;;;;;;;8.50;6.55;;;;;;;9.90;35.88;95722.63;4950993;29;20439;-70
2022/03/01 09:46:14;;;;;;;9.10;7.30;;;;;;;10.41;35.89;95717.38;4950730;29;20215;-74
2022/03/01 09:48:41;;;;;;;10.32;7.30;;;;;;;10.03;35.08;95709.28;4950544;29;20207;-74
2022/03/01 09:51:08;;;;;;;9.57;7.10;;;;;;;9.88;36.02;95722.84;4950651;29;20188;-69
2022/03/01 09:53:36;;;;;;;10.20;7.40;;;;;;;9.64;36.89;95720.47;4950745;29;20196;-72
2022/03/01 09:56:04;;;;;;;9.40;6.82;;;;;;;9.83;36.98;95720.13;4950942;29;20228;-72
2022/03/01 09:58:31;;;;;;;13.45;7.38;;;;;;;10.01;36.49;95729.66;4952249;28;20211;-71
2022/03/01 10:00:58;;;;;;;10.75;7.60;;;;;;;9.88;36.05;95711.59;4954208;29;20212;-70
2022/03/01 10:03:28;;;;;;;14.00;8.02;;;;;;;9.21;37.10;95716.38;4954114;29;20200;-72
2022/03/01 10:06:09;;;;;;;12.00;8.18;;;;;;;9.74;36.90;95720.72;4953663;29;20200;-73
2022/03/01 10:08:39;;;;;;;12.68;9.18;;;;;;;9.46;36.52;95718.00;4953742;29;20214;-72
2022/03/01 10:11:06;;;;;;;10.48;7.70;;;;;;;9.76;37.19;95710.81;4953657;29;20195;-72
2022/03/01 10:13:35;;;;;;;12.68;7.43;;;;;;;8.98;37.10;95705.91;4953999;29;20255;-71
2022/03/01 10:16:04;;;;;;;14.02;7.18;;;;;;;9.06;36.93;95713.44;4953954;29;20235;-74
2022/03/01 10:18:33;;;;;;;9.48;7.88;;;;;;;9.04;37.34;95712.06;4954047;29;20589;-75
2022/03/01 10:21:05;;;;;;;13.18;8.32;;;;;;;8.60;39.07;95713.34;4953890;29;20200;-72
2022/03/01 10:23:33;;;;;;;21.25;13.93;;;;;;;9.04;38.08;95709.44;4953575;29;20308;-72
2022/03/01 10:26:15;;;;;;;19.98;12.05;;;;;;;9.25;37.40;95700.28;4953523;29;20192;-74
2022/03/01 10:28:43;;;;;;;16.80;10.73;;;;;;;8.87;38.20;95704.09;4953439;29;20730;-71
2022/03/01 10:31:13;;;;;;;19.42;11.70;;;;;;;9.06;38.79;95708.22;4950264;28;20215;-73
2022/03/01 10:34:05;;;;;;;16.15;10.75;;;;;;;9.12;37.63;95706.50;4951505;29;20893;-71
2022/03/01 10:36:41;;;;;;;13.43;9.10;;;;;;;9.27;37.66;95701.63;4933738;29;20624;-72
2022/03/01 10:39:10;;;;;;;16.40;10.20;;;;;;;9.47;37.30;95696.06;4951254;29;20208;-71
2022/03/01 10:41:40;;;;;;;74.03;45.38;;;;;;;8.94;37.98;95691.69;4950902;28;20763;-74
2022/03/01 10:44:14;;;;;;;12.95;8.20;;;;;;;9.13;37.78;95685.38;4934828;29;20200;-78
2022/03/01 10:46:51;;;;;;;11.65;8.30;;;;;;;9.46;36.92;95690.03;4953106;29;20200;-76
2022/03/01 10:49:39;;;;;;;15.57;9.63;;;;;;;9.29;37.21;95680.50;4953402;28;20287;-79
2022/03/01 10:52:10;;;;;;;11.95;8.75;;;;;;;9.76;37.21;95676.78;4953416;28;20180;-75
2022/03/01 10:54:42;;;;;;;10.13;7.93;;;;;;;9.81;36.40;95675.06;4953194;29;20199;-75
2022/03/01 10:57:21;;;;;;;12.15;8.75;;;;;;;9.80;35.46;95672.66;4953391;29;20207;-76
2022/03/01 10:59:49;;;;;;;13.88;8.85;;;;;;;10.12;35.40;95663.41;4953326;29;20204;-75
2022/03/01 11:02:17;;;;;;;17.25;10.05;;;;;;;9.88;36.40;95664.47;4953208;29;20207;-73
2022/03/01 11:04:49;;;;;;;9.00;6.82;;;;;;;9.51;35.17;95671.81;4958501;29;20204;-74
2022/03/01 11:07:17;;;;;;;12.20;7.03;;;;;;;10.03;35.68;95659.53;4962190;29;20717;-74
2022/03/01 11:09:45;;;;;;;10.27;7.28;;;;;;;9.90;35.03;95662.41;4953601;28;20214;-73
2022/03/01 11:12:15;;;;;;;11.25;7.13;;;;;;;9.95;35.44;95670.34;4953974;29;20200;-74
2022/03/01 11:15:04;;;;;;;9.75;7.53;;;;;;;10.01;34.33;95657.16;4952989;29;20927;-78
2022/03/01 11:17:43;;;;;;;10.70;6.72;;;;;;;9.31;34.48;95658.28;4953223;29;20203;-75
2022/03/01 11:20:22;;;;;;;9.75;6.25;;;;;;;9.27;34.74;95651.16;4952807;29;20248;-75
2022/03/01 11:22:57;;;;;;;9.20;6.82;;;;;;;9.48;34.53;95653.16;4952332;28;20223;-76
2022/03/01 11:25:29;;;;;;;9.35;6.40;;;;;;;9.61;35.34;95642.44;4952996;29;20583;-73
2022/03/01 11:28:01;;;;;;;11.55;7.40;;;;;;;9.58;35.66;95642.94;4952868;29;20208;-78
2022/03/01 11:30:34;;;;;;;8.77;6.70;;;;;;;9.61;36.20;95647.69;4952904;29;20291;-75
2022/03/01 11:33:02;;;;;;;12.18;7.00;;;;;;;9.37;35.37;95635.66;4952755;29;20208;-77
2022/03/01 11:35:32;;;;;;;12.93;6.70;;;;;;;9.50;35.95;95627.56;4952535;29;20224;-77
2022/03/01 11:38:07;;;;;;;8.02;6.18;;;;;;;9.55;35.59;95643.38;4935757;29;20284;-72
2022/03/01 11:40:43;;;;;;;9.48;6.43;;;;;;;9.63;35.81;95624.72;4952447;29;20282;-75